createdAt,value
2023-03-22T00:01:55.342Z,4.80
2023-03-22T00:04:23.179Z,4.22
2023-03-22T00:07:02.047Z,4.82
2023-03-22T00:09:29.882Z,4.28
2023-03-22T00:11:57.624Z,4.38
2023-03-22T00:14:25.647Z,4.30
2023-03-22T00:16:53.314Z,4.97
2023-03-22T00:19:21.044Z,4.05
2023-03-22T00:21:48.798Z,4.07
2023-03-22T00:24:18.049Z,4.20
2023-03-22T00:26:47.250Z,4.78
2023-03-22T00:29:15.024Z,4.75
2023-03-22T00:31:43.024Z,4.78
2023-03-22T00:34:10.706Z,4.43
2023-03-22T00:36:38.425Z,5.15
2023-03-22T00:39:06.083Z,4.70
2023-03-22T00:41:35.240Z,5.38
2023-03-22T00:44:02.960Z,5.57
2023-03-22T00:46:30.735Z,5.05
2023-03-22T00:48:58.420Z,4.78
2023-03-22T00:51:26.136Z,5.13
2023-03-22T00:53:54.761Z,5.05
2023-03-22T00:56:25.487Z,4.80
2023-03-22T00:58:54.551Z,4.05
2023-03-22T01:01:22.351Z,4.10
2023-03-22T01:03:51.039Z,4.30
2023-03-22T01:06:19.010Z,4.50
2023-03-22T01:08:46.756Z,4.07
2023-03-22T01:11:14.426Z,4.88
2023-03-22T01:13:42.633Z,4.60
2023-03-22T01:16:11.967Z,4.30
2023-03-22T01:18:39.914Z,4.05
2023-03-22T01:21:08.509Z,3.80
2023-03-22T01:23:36.421Z,3.97
2023-03-22T01:26:04.576Z,4.45
2023-03-22T01:28:32.479Z,4.53
2023-03-22T01:31:02.687Z,3.85
2023-03-22T01:33:32.190Z,4.10
2023-03-22T01:35:59.926Z,4.07
2023-03-22T01:38:27.823Z,4.50
2023-03-22T01:40:55.881Z,4.13
2023-03-22T01:43:23.570Z,4.38
2023-03-22T01:45:52.060Z,4.40
2023-03-22T01:48:26.420Z,4.32
2023-03-22T01:51:07.193Z,4.18
2023-03-22T01:53:41.047Z,4.57
2023-03-22T01:56:10.500Z,4.07
2023-03-22T01:58:39.749Z,3.97
2023-03-22T02:01:11.009Z,4.15
2023-03-22T02:03:46.227Z,4.97
2023-03-22T02:06:15.447Z,5.10
2023-03-22T02:08:43.225Z,4.70
2023-03-22T02:11:15.956Z,4.70
2023-03-22T02:14:03.764Z,4.47
2023-03-22T02:16:44.587Z,4.70
2023-03-22T02:19:42.517Z,4.78
2023-03-22T02:22:38.797Z,4.40
2023-03-22T02:25:39.689Z,4.70
2023-03-22T02:28:18.478Z,4.60
2023-03-22T02:31:03.167Z,5.00
2023-03-22T02:33:48.850Z,4.05
2023-03-22T02:36:42.618Z,4.70
2023-03-22T02:39:35.373Z,4.68
2023-03-22T02:42:16.376Z,4.72
2023-03-22T02:44:47.835Z,4.82
2023-03-22T02:47:24.068Z,4.70
2023-03-22T02:49:58.369Z,4.50
2023-03-22T02:52:32.098Z,4.30
2023-03-22T02:55:07.076Z,4.68
2023-03-22T02:57:39.927Z,4.93
2023-03-22T03:02:43.368Z,4.50
2023-03-22T03:05:13.747Z,4.75
2023-03-22T03:07:44.655Z,5.00
2023-03-22T03:10:16.232Z,4.68
2023-03-22T03:12:44.247Z,5.30
2023-03-22T03:15:15.726Z,5.05
2023-03-22T03:18:00.007Z,4.95
2023-03-22T03:20:35.255Z,4.85
2023-03-22T03:23:15.496Z,4.88
2023-03-22T03:25:52.712Z,5.15
2023-03-22T03:28:30.110Z,4.70
2023-03-22T03:31:04.510Z,5.20
2023-03-22T03:33:35.674Z,5.18
2023-03-22T03:36:06.475Z,4.72
2023-03-22T03:38:37.661Z,5.20
2023-03-22T03:41:10.404Z,4.88
2023-03-22T03:43:39.616Z,4.95
2023-03-22T03:46:08.655Z,5.45
2023-03-22T03:48:39.156Z,4.80
2023-03-22T03:51:07.439Z,4.78
2023-03-22T03:53:35.263Z,5.47
2023-03-22T03:56:03.118Z,5.70
2023-03-22T03:58:32.176Z,5.28
2023-03-22T04:00:59.866Z,5.60
2023-03-22T04:03:27.748Z,5.10
2023-03-22T04:05:55.930Z,5.35
2023-03-22T04:08:23.622Z,5.30
2023-03-22T04:10:51.833Z,5.20
2023-03-22T04:13:21.426Z,5.22
2023-03-22T04:15:54.177Z,4.88
2023-03-22T04:18:22.002Z,5.97
2023-03-22T04:20:53.404Z,5.43
2023-03-22T04:23:22.581Z,5.15
2023-03-22T04:25:50.565Z,5.47
2023-03-22T04:28:19.829Z,6.13
2023-03-22T04:30:51.025Z,5.88
2023-03-22T04:33:22.683Z,5.47
2023-03-22T04:35:56.794Z,5.57
2023-03-22T04:38:26.159Z,5.68
2023-03-22T04:40:54.002Z,5.65
2023-03-22T04:43:21.801Z,5.65
2023-03-22T04:45:49.629Z,5.80
2023-03-22T04:48:17.628Z,6.30
2023-03-22T04:50:46.883Z,6.28
2023-03-22T04:53:14.704Z,5.97
2023-03-22T04:55:43.642Z,6.15
2023-03-22T04:58:11.281Z,6.05
2023-03-22T05:00:39.282Z,6.00
2023-03-22T05:03:07.133Z,6.10
2023-03-22T05:05:34.874Z,6.38
2023-03-22T05:08:03.929Z,6.30
2023-03-22T05:10:31.622Z,5.63
2023-03-22T05:12:59.392Z,5.97
2023-03-22T05:15:27.117Z,6.05
2023-03-22T05:17:55.778Z,5.68
2023-03-22T05:20:23.517Z,6.43
2023-03-22T05:22:51.218Z,6.38
2023-03-22T05:25:20.390Z,6.22
2023-03-22T05:27:50.237Z,6.25
2023-03-22T05:30:18.014Z,6.38
2023-03-22T05:32:45.899Z,5.55
2023-03-22T05:35:14.116Z,6.10
2023-03-22T05:37:42.298Z,5.95
2023-03-22T05:40:10.961Z,5.97
2023-03-22T05:42:41.766Z,6.47
2023-03-22T05:45:11.087Z,6.57
2023-03-22T05:47:39.520Z,5.90
2023-03-22T05:50:09.107Z,5.80
2023-03-22T05:52:37.455Z,6.35
2023-03-22T05:55:05.820Z,6.40
2023-03-22T05:57:33.623Z,6.50
2023-03-22T06:00:04.196Z,6.40
2023-03-22T06:02:32.041Z,6.00
2023-03-22T06:04:59.721Z,6.18
2023-03-22T06:07:27.432Z,5.82
2023-03-22T06:09:55.207Z,6.20
2023-03-22T06:12:24.777Z,6.03
2023-03-22T06:14:52.534Z,5.95
2023-03-22T06:17:21.630Z,5.38
2023-03-22T06:19:50.846Z,6.05
2023-03-22T06:22:20.014Z,5.78
2023-03-22T06:24:48.000Z,5.43
2023-03-22T06:27:16.236Z,5.07
2023-03-22T06:29:44.004Z,6.88
2023-03-22T06:32:11.873Z,6.78
2023-03-22T06:34:41.745Z,6.03
2023-03-22T06:37:09.383Z,5.50
2023-03-22T06:39:37.275Z,5.22
2023-03-22T06:42:05.167Z,6.13
2023-03-22T06:44:32.902Z,5.80
2023-03-22T06:47:00.650Z,5.63
2023-03-22T06:49:28.448Z,5.70
2023-03-22T06:51:57.462Z,5.88
2023-03-22T06:54:25.092Z,5.80
2023-03-22T06:56:52.802Z,5.22
2023-03-22T06:59:20.488Z,5.90
2023-03-22T07:01:48.930Z,4.97
2023-03-22T07:04:16.652Z,4.90
2023-03-22T07:06:44.465Z,5.57
2023-03-22T07:09:13.599Z,5.40
2023-03-22T07:11:41.294Z,5.30
2023-03-22T07:14:09.187Z,5.13
2023-03-22T07:16:36.904Z,5.30
2023-03-22T07:19:05.018Z,5.57
2023-03-22T07:21:32.740Z,4.68
2023-03-22T07:24:00.671Z,4.68
2023-03-22T07:26:30.650Z,4.88
2023-03-22T07:28:58.488Z,4.97
2023-03-22T07:31:26.198Z,4.72
2023-03-22T07:33:53.968Z,4.65
2023-03-22T07:36:23.958Z,6.78
2023-03-22T07:38:52.126Z,13.88
2023-03-22T07:41:19.849Z,5.03
2023-03-22T07:43:56.693Z,4.70
2023-03-22T07:46:27.904Z,4.90
2023-03-22T07:48:55.643Z,4.60
2023-03-22T07:51:23.392Z,5.07
2023-03-22T07:53:51.270Z,4.82
2023-03-22T07:56:19.040Z,5.03
2023-03-22T07:58:48.226Z,4.43
2023-03-22T08:01:16.598Z,3.88
2023-03-22T08:03:44.283Z,4.40
2023-03-22T08:06:12.428Z,4.15
2023-03-22T08:08:40.992Z,3.90
2023-03-22T08:11:09.338Z,3.90
2023-03-22T08:13:38.038Z,4.15
2023-03-22T08:16:08.115Z,4.22
2023-03-22T08:18:35.868Z,3.90
2023-03-22T08:21:03.615Z,2.80
2023-03-22T08:23:41.492Z,1.75
2023-03-22T08:26:10.646Z,1.65
2023-03-22T08:28:38.689Z,1.73
2023-03-22T08:31:15.185Z,1.80
2023-03-22T08:33:43.885Z,2.08
2023-03-22T08:36:14.457Z,3.67
2023-03-22T08:38:42.952Z,3.50
2023-03-22T08:41:10.750Z,3.60
2023-03-22T08:43:38.550Z,3.72
2023-03-22T08:46:06.906Z,3.45
2023-03-22T08:48:37.979Z,3.85
2023-03-22T08:51:06.796Z,3.38
2023-03-22T08:53:34.558Z,3.13
2023-03-22T08:56:03.728Z,3.53
2023-03-22T08:58:31.594Z,4.03
2023-03-22T09:00:59.426Z,3.63
2023-03-22T09:03:27.304Z,3.60
2023-03-22T09:05:56.472Z,2.80
2023-03-22T09:08:24.197Z,2.70
2023-03-22T09:10:52.379Z,2.50
2023-03-22T09:13:20.993Z,2.30
2023-03-22T09:15:49.190Z,2.10
2023-03-22T09:18:17.189Z,1.85
2023-03-22T09:20:45.771Z,1.30
2023-03-22T09:23:15.465Z,1.33
2023-03-22T09:25:44.539Z,1.30
2023-03-22T09:28:12.555Z,1.50
2023-03-22T09:30:40.740Z,1.45
2023-03-22T09:33:08.648Z,1.50
2023-03-22T09:35:36.509Z,1.52
2023-03-22T09:38:06.071Z,1.50
2023-03-22T09:40:38.269Z,1.27
2023-03-22T09:43:08.662Z,1.55
2023-03-22T09:45:41.147Z,1.33
2023-03-22T09:50:46.729Z,1.27
2023-03-22T09:53:15.788Z,1.50
2023-03-22T09:55:51.619Z,1.20
2023-03-22T09:58:26.761Z,1.10
2023-03-22T10:00:59.552Z,1.30
2023-03-22T10:03:44.707Z,1.10
2023-03-22T10:06:18.916Z,1.20
2023-03-22T10:08:57.752Z,1.13
2023-03-22T10:11:37.739Z,1.20
2023-03-22T10:14:20.534Z,1.20
2023-03-22T10:16:50.518Z,1.70
2023-03-22T10:19:24.890Z,1.30
2023-03-22T10:21:55.703Z,1.38
2023-03-22T10:24:28.172Z,1.33
2023-03-22T10:26:57.480Z,1.45
2023-03-22T10:29:30.378Z,1.10
2023-03-22T10:32:13.317Z,1.30
2023-03-22T10:34:41.406Z,1.20
2023-03-22T10:37:14.661Z,1.30
2023-03-22T10:39:46.330Z,1.27
2023-03-22T10:42:18.829Z,1.50
2023-03-22T10:44:50.466Z,1.20
2023-03-22T10:47:25.406Z,1.07
2023-03-22T10:49:58.502Z,1.10
2023-03-22T10:52:39.571Z,1.40
2023-03-22T10:55:11.575Z,1.50
2023-03-22T10:57:42.964Z,1.27
2023-03-22T11:00:12.947Z,1.30
2023-03-22T11:02:49.155Z,1.33
2023-03-22T11:05:23.867Z,1.30
2023-03-22T11:07:52.314Z,1.40
2023-03-22T11:10:32.677Z,1.13
2023-03-22T11:13:21.750Z,1.00
2023-03-22T11:15:56.712Z,1.10
2023-03-22T11:18:26.406Z,1.20
2023-03-22T11:20:59.211Z,1.80
2023-03-22T11:23:28.484Z,1.00
2023-03-22T11:25:59.683Z,1.10
2023-03-22T11:28:35.338Z,1.20
2023-03-22T11:31:06.957Z,1.15
2023-03-22T11:33:35.938Z,1.60
2023-03-22T11:36:15.951Z,1.40
2023-03-22T11:38:45.596Z,1.15
2023-03-22T11:41:23.253Z,1.40
2023-03-22T11:43:56.925Z,1.40
2023-03-22T11:46:25.686Z,1.20
2023-03-22T11:49:00.840Z,1.33
2023-03-22T11:51:33.399Z,1.30
2023-03-22T11:54:10.438Z,1.75
2023-03-22T11:56:43.680Z,1.30
2023-03-22T11:59:17.326Z,1.20
2023-03-22T12:01:51.843Z,1.30
2023-03-22T12:04:25.632Z,1.30
2023-03-22T12:06:58.188Z,1.38
2023-03-22T12:12:00.450Z,1.40
2023-03-22T12:14:34.364Z,1.20
2023-03-22T12:17:09.078Z,1.45
2023-03-22T12:19:51.569Z,1.30
2023-03-22T12:22:24.075Z,1.40
2023-03-22T12:24:51.933Z,1.40
2023-03-22T12:27:25.728Z,1.52
2023-03-22T12:29:59.806Z,1.70
2023-03-22T12:32:30.410Z,1.70
2023-03-22T12:35:15.952Z,1.38
2023-03-22T12:37:48.724Z,1.40
2023-03-22T12:40:23.065Z,1.50
2023-03-22T12:43:00.339Z,1.30
2023-03-22T12:45:34.795Z,1.50
2023-03-22T12:48:09.241Z,1.50
2023-03-22T12:50:43.395Z,1.20
2023-03-22T12:53:15.557Z,1.40
2023-03-22T12:55:44.511Z,1.50
2023-03-22T12:58:16.109Z,1.55
2023-03-22T13:00:50.066Z,1.52
2023-03-22T13:03:27.154Z,1.45
2023-03-22T13:06:04.561Z,1.27
2023-03-22T13:09:09.913Z,1.80
2023-03-22T13:11:37.830Z,1.50
2023-03-22T13:14:05.692Z,1.42
2023-03-22T13:16:53.976Z,1.30
2023-03-22T13:19:38.692Z,1.40
2023-03-22T13:22:28.693Z,1.60
2023-03-22T13:25:01.659Z,1.40
2023-03-22T13:27:37.889Z,1.20
2023-03-22T13:30:10.630Z,1.30
2023-03-22T13:32:46.199Z,1.48
2023-03-22T13:35:23.851Z,1.10
2023-03-22T13:37:52.721Z,1.27
2023-03-22T13:40:33.896Z,1.30
2023-03-22T13:43:25.447Z,1.40
2023-03-22T13:46:22.974Z,1.30
2023-03-22T13:49:13.708Z,1.45
2023-03-22T13:51:43.236Z,1.15
2023-03-22T13:54:19.703Z,1.40
2023-03-22T13:56:56.284Z,1.20
2023-03-22T13:59:27.404Z,1.30
2023-03-22T14:01:59.530Z,1.60
2023-03-22T14:04:35.158Z,1.20
2023-03-22T14:07:09.449Z,2.78
2023-03-22T14:09:44.052Z,1.42
2023-03-22T14:12:20.030Z,1.40
2023-03-22T14:14:53.327Z,1.45
2023-03-22T14:17:32.534Z,1.40
2023-03-22T14:20:04.915Z,1.15
